createdAt,value
2019-01-12T00:00:56.411Z,96080.21
2019-01-12T00:03:31.178Z,96111.58
2019-01-12T00:06:03.021Z,96096.98
2019-01-12T00:08:37.283Z,96100.70
2019-01-12T00:11:10.625Z,96074.75
2019-01-12T00:13:42.313Z,96096.13
2019-01-12T00:16:14.494Z,96095.23
2019-01-12T00:18:48.511Z,96100.27
2019-01-12T00:21:27.534Z,96085.85
2019-01-12T00:24:04.971Z,96079.78
2019-01-12T00:26:45.417Z,96094.33
2019-01-12T00:29:18.452Z,96087.45
2019-01-12T00:31:51.443Z,96084.94
2019-01-12T00:34:22.672Z,96091.17
2019-01-12T00:36:55.597Z,96093.34
2019-01-12T00:39:34.413Z,96078.31
2019-01-12T00:42:06.423Z,96107.22
2019-01-12T00:44:37.747Z,96094.66
2019-01-12T00:47:10.669Z,96091.05
2019-01-12T00:49:42.319Z,96096.55
2019-01-12T00:52:15.668Z,96100.16
2019-01-12T00:54:48.721Z,96098.48
2019-01-12T00:57:20.639Z,96105.11
2019-01-12T00:59:53.847Z,96106.63
2019-01-12T01:02:27.662Z,96102.75
2019-01-12T01:05:06.815Z,96108.66
2019-01-12T01:07:45.784Z,96115.73
2019-01-12T01:10:24.576Z,95883.94
2019-01-12T01:13:06.349Z,96118.67
2019-01-12T01:15:45.787Z,96115.56
2019-01-12T01:18:25.124Z,96126.08
2019-01-12T01:21:05.816Z,96131.19
2019-01-12T01:23:39.410Z,96140.88
2019-01-12T01:26:20.225Z,96144.48
2019-01-12T01:28:59.235Z,96141.20
2019-01-12T01:31:31.670Z,96139.14
2019-01-12T01:34:05.723Z,96133.76
2019-01-12T01:36:38.863Z,96137.11
2019-01-12T01:39:12.794Z,96138.79
2019-01-12T01:41:45.644Z,96154.60
2019-01-12T01:44:17.853Z,96137.16
2019-01-12T01:46:51.071Z,96127.05
2019-01-12T01:49:22.288Z,96130.17
2019-01-12T01:51:55.804Z,96126.16
2019-01-12T01:54:29.797Z,96120.76
2019-01-12T01:57:03.069Z,96125.49
2019-01-12T01:59:36.925Z,96137.34
2019-01-12T02:02:10.095Z,96133.12
2019-01-12T02:04:42.618Z,96135.20
2019-01-12T02:07:15.891Z,96130.60
2019-01-12T02:09:48.889Z,96118.74
2019-01-12T02:12:23.117Z,96123.05
2019-01-12T02:14:56.954Z,96118.31
2019-01-12T02:17:29.984Z,96126.59
2019-01-12T02:20:04.607Z,96113.64
2019-01-12T02:22:38.601Z,96109.62
2019-01-12T02:25:11.155Z,96120.95
2019-01-12T02:27:42.526Z,96120.23
2019-01-12T02:30:25.068Z,96102.58
2019-01-12T02:32:58.154Z,96113.09
2019-01-12T02:35:32.010Z,96103.30
2019-01-12T02:38:05.338Z,96106.10
2019-01-12T02:40:36.732Z,96103.95
2019-01-12T02:43:10.042Z,96099.70
2019-01-12T02:45:42.390Z,96102.81
2019-01-12T02:48:14.204Z,96101.67
2019-01-12T02:50:46.131Z,96106.16
2019-01-12T02:53:18.109Z,96116.70
2019-01-12T02:55:52.109Z,96106.05
2019-01-12T02:58:27.852Z,96112.56
2019-01-12T03:01:00.255Z,96113.59
2019-01-12T03:03:34.276Z,96114.08
2019-01-12T03:06:07.170Z,96116.28
2019-01-12T03:08:41.712Z,96115.38
2019-01-12T03:11:15.198Z,96113.48
2019-01-12T03:13:46.511Z,96113.66
2019-01-12T03:16:22.859Z,96113.23
2019-01-12T03:18:56.080Z,96107.48
2019-01-12T03:21:27.300Z,96114.13
2019-01-12T03:24:00.221Z,96113.41
2019-01-12T03:26:31.770Z,96122.95
2019-01-12T03:29:05.037Z,96108.97
2019-01-12T03:31:38.365Z,96105.67
2019-01-12T03:34:12.772Z,96106.28
2019-01-12T03:36:46.163Z,96114.48
2019-01-12T03:39:19.406Z,96105.67
2019-01-12T03:41:52.367Z,96107.71
2019-01-12T03:44:23.700Z,96111.00
2019-01-12T03:46:57.315Z,96118.60
2019-01-12T03:49:31.388Z,96118.86
2019-01-12T03:52:04.740Z,96114.59
2019-01-12T03:54:38.358Z,96118.44
2019-01-12T03:57:13.873Z,96108.05
2019-01-12T03:59:48.427Z,96112.19
2019-01-12T04:02:20.156Z,96104.16
2019-01-12T04:04:53.410Z,96103.21
2019-01-12T04:07:29.193Z,96096.96
2019-01-12T04:10:01.481Z,96089.87
2019-01-12T04:12:34.220Z,96091.88
2019-01-12T04:15:06.553Z,96085.32
2019-01-12T04:17:40.494Z,96090.91
2019-01-12T04:20:16.704Z,96088.88
2019-01-12T04:22:48.520Z,96089.16
2019-01-12T04:25:20.501Z,96088.12
2019-01-12T04:27:54.520Z,96091.67
2019-01-12T04:30:27.530Z,96086.34
2019-01-12T04:33:00.517Z,96090.17
2019-01-12T04:35:35.995Z,96086.90
2019-01-12T04:38:08.514Z,96084.31
2019-01-12T04:40:42.452Z,96084.28
2019-01-12T04:43:15.593Z,96078.70
2019-01-12T04:45:48.744Z,96078.39
2019-01-12T04:48:20.494Z,96087.20
2019-01-12T04:50:54.744Z,96081.16
2019-01-12T04:53:27.687Z,96078.58
2019-01-12T04:56:03.162Z,96076.27
2019-01-12T04:58:34.622Z,96084.08
2019-01-12T05:01:10.198Z,96089.94
2019-01-12T05:03:45.468Z,96095.34
2019-01-12T05:06:22.217Z,96091.64
2019-01-12T05:08:53.773Z,96100.36
2019-01-12T05:11:26.738Z,96098.33
2019-01-12T05:14:00.698Z,96099.09
2019-01-12T05:16:34.422Z,96093.14
2019-01-12T05:19:05.748Z,96098.64
2019-01-12T05:21:40.480Z,96105.42
2019-01-12T05:24:14.584Z,96101.83
2019-01-12T05:26:49.833Z,96099.59
2019-01-12T05:29:21.101Z,96091.97
2019-01-12T05:31:54.336Z,96094.70
2019-01-12T05:34:28.556Z,96099.34
2019-01-12T05:37:47.264Z,96097.97
2019-01-12T05:40:19.705Z,96095.32
2019-01-12T05:42:51.688Z,96104.33
2019-01-12T05:45:24.902Z,96104.63
2019-01-12T05:47:56.861Z,96114.19
2019-01-12T05:50:29.017Z,96107.18
2019-01-12T05:53:02.884Z,96112.22
2019-01-12T05:55:36.017Z,96103.00
2019-01-12T05:58:10.067Z,96108.93
2019-01-12T06:00:44.310Z,96103.06
2019-01-12T06:03:17.786Z,96107.40
2019-01-12T06:05:51.994Z,96109.45
2019-01-12T06:08:25.830Z,96106.45
2019-01-12T06:10:58.913Z,96124.61
2019-01-12T06:13:31.932Z,96116.06
2019-01-12T06:16:03.138Z,96136.84
2019-01-12T06:18:35.019Z,96138.13
2019-01-12T06:21:07.084Z,96136.37
2019-01-12T06:23:38.340Z,96139.81
2019-01-12T06:26:12.153Z,96132.02
2019-01-12T06:28:43.387Z,96144.36
2019-01-12T06:31:16.274Z,96151.09
2019-01-12T06:33:50.826Z,96155.98
2019-01-12T06:36:23.331Z,96142.67
2019-01-12T06:38:55.161Z,96139.52
2019-01-12T06:41:27.085Z,96144.43
2019-01-12T06:43:58.286Z,96140.25
2019-01-12T06:46:31.030Z,96145.20
2019-01-12T06:49:02.617Z,96130.97
2019-01-12T06:51:35.283Z,96132.34
2019-01-12T06:54:08.641Z,96134.56
2019-01-12T06:56:40.411Z,96138.55
2019-01-12T06:59:12.928Z,96129.45
2019-01-12T07:01:46.323Z,96129.30
2019-01-12T07:04:20.911Z,96130.34
2019-01-12T07:06:54.816Z,96133.67
2019-01-12T07:09:28.778Z,96130.99
2019-01-12T07:12:01.289Z,96132.43
2019-01-12T07:14:34.267Z,96136.27
2019-01-12T07:17:05.836Z,96138.11
2019-01-12T07:19:39.367Z,96132.40
2019-01-12T07:22:12.367Z,96139.28
2019-01-12T07:24:45.677Z,96148.05
2019-01-12T07:27:18.256Z,96154.41
2019-01-12T07:29:52.214Z,96153.74
2019-01-12T07:32:24.343Z,96151.42
2019-01-12T07:34:55.596Z,96156.74
2019-01-12T07:37:26.835Z,96162.53
2019-01-12T07:40:00.278Z,96152.55
2019-01-12T07:42:31.627Z,96158.64
2019-01-12T07:45:05.908Z,96163.54
2019-01-12T07:47:37.328Z,96167.52
2019-01-12T07:50:10.168Z,96169.69
2019-01-12T07:52:41.420Z,96154.55
2019-01-12T07:55:15.331Z,96163.31
2019-01-12T07:57:49.321Z,96155.96
2019-01-12T08:00:22.219Z,96163.56
2019-01-12T08:02:53.516Z,96165.22
2019-01-12T08:05:26.511Z,96156.27
2019-01-12T08:07:58.441Z,96162.05
2019-01-12T08:10:31.514Z,96165.45
2019-01-12T08:13:02.776Z,96156.91
2019-01-12T08:15:35.546Z,96158.03
2019-01-12T08:18:09.586Z,96168.69
2019-01-12T08:20:42.610Z,96180.86
2019-01-12T08:23:13.913Z,96161.16
2019-01-12T08:25:47.372Z,96172.53
2019-01-12T08:28:20.514Z,96166.23
2019-01-12T08:30:52.725Z,96165.11
2019-01-12T08:33:25.497Z,96167.20
2019-01-12T08:35:58.330Z,96169.66
2019-01-12T08:38:30.530Z,96178.76
2019-01-12T08:41:02.826Z,96166.44
2019-01-12T08:43:34.095Z,96162.36
2019-01-12T08:46:06.569Z,96168.03
2019-01-12T08:48:39.632Z,96160.83
2019-01-12T08:51:11.829Z,96163.23
2019-01-12T08:53:43.040Z,96172.27
2019-01-12T08:56:14.703Z,96170.79
2019-01-12T08:58:49.997Z,96166.94
2019-01-12T09:01:23.856Z,96169.30
2019-01-12T09:03:56.599Z,96161.27
2019-01-12T09:06:29.810Z,96173.64
2019-01-12T09:09:01.694Z,96171.19
2019-01-12T09:11:35.574Z,96177.11
2019-01-12T09:14:08.713Z,96165.02
2019-01-12T09:16:41.155Z,96155.36
2019-01-12T09:19:12.652Z,96164.26
2019-01-12T09:21:45.492Z,96168.34
2019-01-12T09:24:17.827Z,96168.18
2019-01-12T09:26:49.844Z,96171.27
2019-01-12T09:29:21.664Z,96167.14
2019-01-12T09:31:53.138Z,96157.68
2019-01-12T09:34:26.611Z,96176.17
2019-01-12T09:36:59.822Z,96164.89
2019-01-12T09:39:33.829Z,96162.50
2019-01-12T09:42:09.388Z,96153.70
2019-01-12T09:44:41.985Z,96156.69
2019-01-12T09:47:15.094Z,96152.84
2019-01-12T09:49:46.340Z,96151.02
2019-01-12T09:52:19.801Z,96158.39
2019-01-12T09:54:53.944Z,96141.48
2019-01-12T09:57:27.142Z,96158.86
2019-01-12T10:00:02.669Z,96157.76
2019-01-12T10:02:34.673Z,96152.02
2019-01-12T10:05:09.572Z,96143.31
2019-01-12T10:07:42.018Z,96142.31
2019-01-12T10:10:16.450Z,96137.41
2019-01-12T10:12:50.190Z,96147.53
2019-01-12T10:15:22.037Z,96134.34
2019-01-12T10:17:53.267Z,96133.72
2019-01-12T10:20:25.989Z,96128.73
2019-01-12T10:23:01.836Z,96132.22
2019-01-12T10:25:34.048Z,96127.61
2019-01-12T10:28:07.128Z,96121.61
2019-01-12T10:30:41.222Z,96119.30
2019-01-12T10:33:15.278Z,96120.45
2019-01-12T10:35:50.145Z,96112.63
2019-01-12T10:38:22.223Z,96109.84
2019-01-12T10:40:56.238Z,96108.72
2019-01-12T10:43:28.213Z,96103.44
2019-01-12T10:46:00.248Z,96116.55
2019-01-12T10:48:31.448Z,96102.53
2019-01-12T10:51:06.051Z,96095.92
2019-01-12T10:53:39.191Z,96101.95
2019-01-12T10:56:13.147Z,96103.01
2019-01-12T10:58:46.149Z,96097.16
2019-01-12T11:01:20.522Z,96103.01
2019-01-12T11:03:54.205Z,96102.28
2019-01-12T11:06:27.422Z,96099.88
2019-01-12T11:09:02.920Z,96094.83
2019-01-12T11:11:36.330Z,96089.45
2019-01-12T11:14:08.180Z,96096.85
2019-01-12T11:16:39.397Z,96090.29
2019-01-12T11:19:12.256Z,96091.58
2019-01-12T11:21:43.603Z,96086.82
2019-01-12T11:24:17.401Z,96087.69
2019-01-12T11:26:49.387Z,96099.20
2019-01-12T11:29:21.352Z,96085.53
2019-01-12T11:31:54.332Z,96099.34
2019-01-12T11:34:26.319Z,96085.78
2019-01-12T11:36:59.312Z,96086.20
2019-01-12T11:39:34.115Z,96079.02
2019-01-12T11:42:06.477Z,96082.88
2019-01-12T11:44:41.966Z,96074.94
2019-01-12T11:47:14.554Z,96079.70
2019-01-12T11:49:46.509Z,96069.88
2019-01-12T11:52:18.450Z,96082.38
2019-01-12T11:54:49.686Z,96072.66
2019-01-12T11:57:22.413Z,96076.01
2019-01-12T11:59:57.913Z,96066.70
2019-01-12T12:02:30.046Z,96062.71
2019-01-12T12:05:03.139Z,96058.42
2019-01-12T12:07:35.468Z,96058.42
2019-01-12T12:10:09.287Z,96055.52
2019-01-12T12:12:42.487Z,96055.00
2019-01-12T12:15:18.082Z,96048.89
2019-01-12T12:17:49.821Z,96030.81
2019-01-12T12:20:28.102Z,96031.25
2019-01-12T12:22:59.530Z,96034.62
2019-01-12T12:25:31.903Z,96030.73
2019-01-12T12:28:04.700Z,96024.58
2019-01-12T12:30:37.603Z,96028.73
2019-01-12T12:33:10.483Z,96021.70
2019-01-12T12:35:41.680Z,96024.50
2019-01-12T12:38:15.959Z,96021.61
2019-01-12T12:40:49.562Z,96022.06
2019-01-12T12:43:22.792Z,96022.73
2019-01-12T12:45:56.654Z,96017.22
2019-01-12T12:48:28.777Z,96018.70
2019-01-12T12:51:01.765Z,96020.65
2019-01-12T12:53:34.744Z,96013.48
2019-01-12T12:56:06.256Z,96011.50
2019-01-12T12:58:39.662Z,95988.67
2019-01-12T13:01:13.705Z,95989.78
2019-01-12T13:03:49.377Z,95983.47
2019-01-12T13:06:22.788Z,95984.65
2019-01-12T13:08:54.787Z,95980.94
2019-01-12T13:11:28.856Z,95987.41
2019-01-12T13:14:01.631Z,95988.36
2019-01-12T13:16:33.295Z,95978.13
2019-01-12T13:19:06.011Z,95991.28
2019-01-12T13:21:40.173Z,95993.25
2019-01-12T13:24:13.794Z,95986.42
2019-01-12T13:26:48.509Z,95976.98
2019-01-12T13:29:20.009Z,95974.92
2019-01-12T13:31:52.016Z,95972.08
2019-01-12T13:34:24.723Z,95975.95
2019-01-12T13:36:58.086Z,95967.85
2019-01-12T13:39:32.144Z,95966.28
2019-01-12T13:42:02.496Z,95967.70
2019-01-12T13:44:36.067Z,95972.52
2019-01-12T13:47:11.815Z,95964.42
2019-01-12T13:49:43.090Z,95965.25
2019-01-12T13:52:18.542Z,95965.91
2019-01-12T13:54:49.920Z,95960.34
2019-01-12T13:57:21.217Z,95948.88
2019-01-12T13:59:55.157Z,95965.52
2019-01-12T14:02:29.164Z,95965.23
2019-01-12T14:05:03.294Z,95963.22
2019-01-12T14:07:35.217Z,95962.27
2019-01-12T14:10:11.283Z,95954.30
2019-01-12T14:12:43.071Z,95966.34
2019-01-12T14:15:17.891Z,95954.61
2019-01-12T14:17:50.163Z,95955.71
2019-01-12T14:20:34.006Z,95948.72
2019-01-12T14:23:08.578Z,95955.28
2019-01-12T14:25:41.817Z,95958.67
2019-01-12T14:28:14.049Z,95952.59
2019-01-12T14:30:45.287Z,95954.05
2019-01-12T14:33:19.185Z,95952.87
2019-01-12T14:35:52.100Z,95944.02
2019-01-12T14:38:27.897Z,95934.90
2019-01-12T14:40:59.118Z,95926.65
2019-01-12T14:43:33.279Z,95929.84
2019-01-12T14:46:06.174Z,95937.94
2019-01-12T14:48:40.199Z,95927.83
2019-01-12T14:51:15.957Z,95925.66
2019-01-12T14:53:48.810Z,95929.17
2019-01-12T14:56:21.788Z,95929.45
2019-01-12T14:58:55.753Z,95922.55
2019-01-12T15:01:28.075Z,95917.56
2019-01-12T15:04:03.930Z,95914.16
2019-01-12T15:06:36.177Z,95923.13
2019-01-12T15:09:11.726Z,95914.96
2019-01-12T15:11:44.430Z,95902.48
2019-01-12T15:14:19.213Z,95903.07
2019-01-12T15:16:50.397Z,95904.18
2019-01-12T15:19:25.909Z,95894.15
2019-01-12T15:21:57.455Z,95903.51
2019-01-12T15:24:29.374Z,95896.39
2019-01-12T15:27:03.272Z,95893.40
2019-01-12T15:29:36.345Z,95902.33
2019-01-12T15:32:07.539Z,95890.88
2019-01-12T15:34:41.310Z,95886.13
2019-01-12T15:37:15.516Z,95883.37
2019-01-12T15:39:47.511Z,95886.28
2019-01-12T15:42:19.433Z,95885.53
2019-01-12T15:44:55.215Z,95876.02
2019-01-12T15:47:28.049Z,95870.05
2019-01-12T15:50:02.277Z,95874.08
2019-01-12T15:52:35.427Z,95874.44
2019-01-12T15:55:08.040Z,95878.03
2019-01-12T15:57:42.591Z,95871.70
2019-01-12T16:00:17.951Z,95848.13
2019-01-12T16:02:50.094Z,95843.74
2019-01-12T16:05:22.449Z,95841.57
2019-01-12T16:07:55.614Z,95844.65
2019-01-12T16:10:26.828Z,95847.84
2019-01-12T16:12:58.049Z,95841.05
2019-01-12T16:15:31.661Z,95850.95
2019-01-12T16:18:04.623Z,95836.64
2019-01-12T16:20:40.131Z,95850.03
2019-01-12T16:23:14.345Z,95843.44
2019-01-12T16:25:46.163Z,95833.33
2019-01-12T16:28:27.821Z,95833.53
2019-01-12T16:30:59.811Z,95808.48
2019-01-12T16:33:33.271Z,95820.81
2019-01-12T16:36:04.546Z,95829.14
2019-01-12T16:38:35.864Z,95817.47
2019-01-12T16:41:08.704Z,95810.09
2019-01-12T16:43:39.945Z,95832.71
2019-01-12T16:46:11.685Z,95812.70
2019-01-12T16:48:44.046Z,95800.73
2019-01-12T16:51:18.154Z,95793.30
2019-01-12T16:53:56.779Z,95788.94
2019-01-12T16:56:32.570Z,95777.25
2019-01-12T16:59:09.184Z,95780.96
2019-01-12T17:01:49.604Z,95769.45
2019-01-12T17:04:23.776Z,95773.38
2019-01-12T17:07:03.806Z,95783.66
2019-01-12T17:09:44.646Z,95751.20
2019-01-12T17:12:16.952Z,95750.51
2019-01-12T17:14:52.453Z,95745.45
2019-01-12T17:17:24.998Z,95754.39
2019-01-12T17:19:57.884Z,95754.86
2019-01-12T17:22:38.625Z,95750.16
2019-01-12T17:25:11.066Z,95768.88
2019-01-12T17:27:51.041Z,95740.39
2019-01-12T17:30:34.106Z,95760.35
2019-01-12T17:33:10.568Z,95751.28
2019-01-12T17:35:50.670Z,95738.28
2019-01-12T17:38:27.060Z,95756.86
2019-01-12T17:40:58.894Z,95731.44
2019-01-12T17:43:38.494Z,95731.80
2019-01-12T17:46:21.478Z,95740.48
2019-01-12T17:48:53.174Z,95751.34
2019-01-12T17:51:32.158Z,95733.36
2019-01-12T17:54:15.209Z,95718.16
2019-01-12T17:56:53.344Z,95722.03
2019-01-12T17:59:37.668Z,95754.91
2019-01-12T18:02:17.981Z,95716.59
2019-01-12T18:04:51.173Z,95705.52
2019-01-12T18:07:22.993Z,95698.80
2019-01-12T18:09:56.338Z,95704.25
2019-01-12T18:12:31.864Z,95715.63
2019-01-12T18:15:11.757Z,95703.64
2019-01-12T18:17:44.183Z,95699.94
2019-01-12T18:20:17.733Z,95710.41
2019-01-12T18:23:00.280Z,95723.31
2019-01-12T18:25:40.249Z,95710.48
2019-01-12T18:28:14.129Z,95714.50
2019-01-12T18:30:47.315Z,95699.94
2019-01-12T18:33:21.165Z,95705.78
2019-01-12T18:35:55.240Z,95714.45
2019-01-12T18:38:28.126Z,95705.30
2019-01-12T18:41:02.218Z,95682.33
2019-01-12T18:43:43.583Z,95689.77
2019-01-12T18:46:16.437Z,95673.47
2019-01-12T18:48:59.118Z,95679.80
2019-01-12T18:51:32.341Z,95693.00
2019-01-12T18:54:06.159Z,95683.89
2019-01-12T18:56:39.407Z,95681.63
2019-01-12T18:59:18.998Z,95672.95
2019-01-12T19:01:50.319Z,95682.41
2019-01-12T19:04:23.358Z,95679.57
2019-01-12T19:06:57.730Z,95664.67
2019-01-12T19:09:30.832Z,95677.13
2019-01-12T19:12:04.483Z,95656.42
2019-01-12T19:14:38.291Z,95664.19
2019-01-12T19:17:12.588Z,95648.97
2019-01-12T19:19:43.801Z,95653.76
2019-01-12T19:22:16.437Z,95653.20
2019-01-12T19:24:50.220Z,95651.54
2019-01-12T19:27:24.240Z,95648.31
2019-01-12T19:29:58.658Z,95650.72
2019-01-12T19:32:31.406Z,95641.13
2019-01-12T19:35:04.745Z,95639.55
2019-01-12T19:37:38.358Z,95644.35
2019-01-12T19:40:16.227Z,95638.03
2019-01-12T19:42:50.531Z,95640.33
2019-01-12T19:45:22.497Z,95634.33
2019-01-12T19:47:56.516Z,95627.44
2019-01-12T19:50:27.948Z,95628.52
2019-01-12T19:53:01.544Z,95624.91
2019-01-12T19:55:35.569Z,95614.66
2019-01-12T19:58:09.584Z,95625.52
2019-01-12T20:00:42.595Z,95614.78
2019-01-12T20:03:15.669Z,95616.00
2019-01-12T20:05:46.935Z,95610.56
2019-01-12T20:08:20.765Z,95601.88
2019-01-12T20:10:54.567Z,95601.36
2019-01-12T20:13:26.168Z,95605.34
2019-01-12T20:15:59.270Z,95612.92
2019-01-12T20:18:31.662Z,95586.39
2019-01-12T20:21:04.746Z,95572.34
2019-01-12T20:23:35.940Z,95571.83
2019-01-12T20:26:09.793Z,95563.64
2019-01-12T20:28:42.735Z,95572.13
2019-01-12T20:32:03.682Z,95565.73
2019-01-12T20:34:50.625Z,95560.98
2019-01-12T20:38:20.356Z,95572.58
2019-01-12T20:41:12.079Z,95551.02
2019-01-12T20:44:35.512Z,95554.79
2019-01-12T20:47:33.125Z,95530.79
2019-01-12T20:50:23.819Z,95536.94
2019-01-12T20:53:39.185Z,95533.59
2019-01-12T20:56:53.374Z,95537.16
2019-01-12T21:00:03.858Z,95530.41
2019-01-12T21:03:14.810Z,95533.55
2019-01-12T21:06:22.686Z,95524.27
2019-01-12T21:09:25.918Z,95521.91
2019-01-12T21:12:33.459Z,95519.73
2019-01-12T21:15:13.182Z,95508.02
2019-01-12T21:17:44.458Z,95504.62
2019-01-12T21:20:17.843Z,95485.31
2019-01-12T21:22:51.044Z,95472.47
2019-01-12T21:25:26.522Z,95485.31
2019-01-12T21:28:25.006Z,95504.96
2019-01-12T21:30:57.802Z,95498.34
2019-01-12T21:33:29.023Z,95480.32
2019-01-12T21:36:03.052Z,95483.14
2019-01-12T21:38:39.081Z,95489.10
2019-01-12T21:41:10.561Z,95467.42
2019-01-12T21:43:43.894Z,95491.77
2019-01-12T21:46:23.267Z,95481.67
2019-01-12T21:49:01.647Z,95473.91
2019-01-12T21:51:34.132Z,95471.95
2019-01-12T21:54:08.119Z,95453.70
2019-01-12T21:56:42.682Z,95460.25
2019-01-12T21:59:15.159Z,95456.19
2019-01-12T22:01:49.974Z,95442.13
2019-01-12T22:04:22.949Z,95447.53
2019-01-12T22:06:56.164Z,95443.56
2019-01-12T22:09:36.620Z,95441.92
2019-01-12T22:12:10.602Z,95435.91
2019-01-12T22:14:50.289Z,95431.47
2019-01-12T22:17:32.449Z,95436.81
2019-01-12T22:20:14.638Z,95421.45
2019-01-12T22:22:48.849Z,95416.75
2019-01-12T22:25:29.312Z,95421.80
2019-01-12T22:28:01.004Z,95417.22
2019-01-12T22:30:34.266Z,95400.80
2019-01-12T22:33:12.003Z,95403.06
2019-01-12T22:35:43.231Z,95402.33
2019-01-12T22:38:16.109Z,95407.77
2019-01-12T22:40:51.936Z,95408.38
2019-01-12T22:43:24.800Z,95397.37
2019-01-12T22:45:56.352Z,95396.11
2019-01-12T22:48:28.277Z,95393.84
2019-01-12T22:51:01.075Z,95384.56
2019-01-12T22:53:32.320Z,95385.97
2019-01-12T22:56:06.462Z,95381.92
2019-01-12T22:58:40.346Z,95377.95
2019-01-12T23:01:37.886Z,95380.75
2019-01-12T23:04:28.063Z,95393.75
2019-01-12T23:07:11.386Z,95376.52
2019-01-12T23:09:40.356Z,95364.97
2019-01-12T23:12:14.488Z,95359.57
2019-01-12T23:14:49.078Z,95358.11
2019-01-12T23:17:22.161Z,95357.66
2019-01-12T23:19:55.506Z,95361.45
2019-01-12T23:22:30.970Z,95352.61
2019-01-12T23:25:02.430Z,95358.75
2019-01-12T23:27:34.579Z,95354.97
2019-01-12T23:30:12.133Z,95345.86
2019-01-12T23:32:49.407Z,95336.37
2019-01-12T23:35:23.547Z,95337.55
2019-01-12T23:37:56.596Z,95338.55
2019-01-12T23:40:32.237Z,95328.09
2019-01-12T23:43:03.635Z,95322.42
2019-01-12T23:45:37.704Z,95321.31
2019-01-12T23:48:10.599Z,95315.38
2019-01-12T23:50:43.734Z,95305.72
2019-01-12T23:53:15.676Z,95305.80
2019-01-12T23:55:49.718Z,95316.97
2019-01-12T23:58:22.654Z,95324.10
